Time;durP1;ratioP1;P1;durP2;ratioP2;P2;SDS_P1;SDS_P2;PMS_P1;PMS_P2;Temp;Humidity;BMP_temperature;BMP_pressure;BME280_temperature;BME280_humidity;BME280_pressure;Samples;Min_cycle;Max_cycle;Signal;HPM_P1;HPM_P2
2022/07/27 00:01:39;;;;;;;;;;;16.10;99.90;;;;;;5010510;28;19933;-70
2022/07/27 00:04:06;;;;;;;;;;;16.00;99.90;;;;;;5011718;28;19925;-70
2022/07/27 00:06:33;;;;;;;;;;;16.00;99.90;;;;;;5013038;28;19932;-70
2022/07/27 00:09:00;;;;;;;;;;;16.00;99.90;;;;;;5008262;28;19961;-70
2022/07/27 00:11:29;;;;;;;;;;;15.90;99.90;;;;;;5006798;28;19957;-70
2022/07/27 00:13:55;;;;;;;;;;;15.90;99.90;;;;;;5009701;28;19925;-70
2022/07/27 00:16:22;;;;;;;;;;;15.90;99.90;;;;;;5009021;28;19926;-70
2022/07/27 00:18:49;;;;;;;;;;;15.80;99.90;;;;;;5009858;28;20332;-69
2022/07/27 00:21:16;;;;;;;;;;;15.80;99.90;;;;;;4999504;28;19933;-71
2022/07/27 00:23:43;;;;;;;;;;;15.80;99.90;;;;;;5021946;28;19930;-70
2022/07/27 00:26:09;;;;;;;;;;;15.80;99.90;;;;;;5008522;28;19929;-70
2022/07/27 00:28:38;;;;;;;;;;;15.80;99.90;;;;;;5006444;28;20120;-70
2022/07/27 00:31:04;;;;;;;;;;;15.90;99.90;;;;;;5009452;28;20298;-70
2022/07/27 00:33:31;;;;;;;;;;;15.90;99.90;;;;;;5007559;28;19933;-70
2022/07/27 00:35:58;;;;;;;;;;;15.90;99.90;;;;;;5011580;28;19929;-68
2022/07/27 00:38:25;;;;;;;;;;;15.90;99.90;;;;;;5000928;28;20013;-70
2022/07/27 00:40:52;;;;;;;;;;;15.90;99.90;;;;;;5006415;28;19926;-70
2022/07/27 00:43:19;;;;;;;;;;;15.80;99.90;;;;;;5010627;28;19925;-70
2022/07/27 00:45:47;;;;;;;;;;;15.90;99.90;;;;;;5001494;28;20016;-70
2022/07/27 00:48:14;;;;;;;;;;;15.80;99.90;;;;;;5005361;28;19925;-70
2022/07/27 00:50:42;;;;;;;;;;;15.80;99.90;;;;;;5008370;28;20353;-70
2022/07/27 00:53:09;;;;;;;;;;;15.80;99.90;;;;;;5002385;28;19926;-70
2022/07/27 00:55:36;;;;;;;;;;;15.80;99.90;;;;;;5002163;28;19932;-70
2022/07/27 00:58:04;;;;;;;;;;;15.80;99.90;;;;;;5005501;28;19933;-70
2022/07/27 01:00:31;;;;;;;;;;;15.80;99.90;;;;;;5019510;28;19929;-70
2022/07/27 01:02:59;;;;;;;;;;;15.80;99.90;;;;;;5002221;28;19926;-70
2022/07/27 01:05:26;;;;;;;;;;;15.70;99.90;;;;;;5009685;28;19961;-70
2022/07/27 01:07:53;;;;;;;;;;;15.70;99.90;;;;;;5016898;28;19925;-70
2022/07/27 01:10:20;;;;;;;;;;;15.70;99.90;;;;;;5006182;28;19937;-70
2022/07/27 01:12:47;;;;;;;;;;;15.70;99.90;;;;;;5005151;28;19944;-70
2022/07/27 01:15:14;;;;;;;;;;;15.70;99.90;;;;;;5000975;28;19926;-70
2022/07/27 01:17:41;;;;;;;;;;;15.70;99.90;;;;;;5002323;28;19925;-70
2022/07/27 01:20:10;;;;;;;;;;;15.60;99.90;;;;;;5001575;28;19932;-70
2022/07/27 01:22:38;;;;;;;;;;;15.70;99.90;;;;;;5002796;28;19926;-70
2022/07/27 01:25:05;;;;;;;;;;;15.60;99.90;;;;;;4999109;28;19930;-70
2022/07/27 01:27:32;;;;;;;;;;;15.60;99.90;;;;;;5018448;28;19925;-69
2022/07/27 01:29:59;;;;;;;;;;;15.60;99.90;;;;;;5008072;28;19925;-69
2022/07/27 01:32:25;;;;;;;;;;;15.60;99.90;;;;;;5017212;28;19940;-71
2022/07/27 01:34:52;;;;;;;;;;;15.60;99.90;;;;;;4995584;28;19956;-70
2022/07/27 01:37:19;;;;;;;;;;;15.60;99.90;;;;;;5002185;28;19949;-70
2022/07/27 01:39:47;;;;;;;;;;;15.50;99.90;;;;;;4999795;28;19929;-70
2022/07/27 01:42:15;;;;;;;;;;;15.50;99.90;;;;;;5007878;28;19975;-70
2022/07/27 01:44:41;;;;;;;;;;;15.50;99.90;;;;;;5000606;28;19926;-71
2022/07/27 01:47:08;;;;;;;;;;;15.40;99.90;;;;;;5010175;28;19929;-70
2022/07/27 01:49:35;;;;;;;;;;;15.40;99.90;;;;;;5001750;28;19925;-70
2022/07/27 01:52:02;;;;;;;;;;;15.40;99.90;;;;;;5007353;28;19925;-70
2022/07/27 01:54:29;;;;;;;;;;;15.40;99.90;;;;;;5002183;28;20336;-70
2022/07/27 01:56:57;;;;;;;;;;;15.30;99.90;;;;;;5007877;28;19925;-70
2022/07/27 01:59:23;;;;;;;;;;;15.30;99.90;;;;;;5004780;28;19933;-71
2022/07/27 02:01:50;;;;;;;;;;;15.30;99.90;;;;;;4998031;28;19933;-70
2022/07/27 02:04:18;;;;;;;;;;;15.20;99.90;;;;;;5010962;28;19929;-70
2022/07/27 02:06:44;;;;;;;;;;;15.20;99.90;;;;;;5004480;28;19968;-71
2022/07/27 02:09:11;;;;;;;;;;;15.10;99.90;;;;;;5004869;28;20324;-70
2022/07/27 02:14:24;;;;;;;;;;;15.00;99.90;;;;;;4995003;28;19922;-70
2022/07/27 02:16:51;;;;;;;;;;;14.90;99.90;;;;;;5008645;28;19929;-70
2022/07/27 02:19:18;;;;;;;;;;;14.80;99.90;;;;;;5003643;28;19958;-70
2022/07/27 02:21:45;;;;;;;;;;;14.60;99.90;;;;;;5006925;28;19933;-69
2022/07/27 02:24:11;;;;;;;;;;;14.60;99.90;;;;;;5008034;28;19929;-70
2022/07/27 02:26:38;;;;;;;;;;;14.50;99.90;;;;;;4998710;28;19925;-70
2022/07/27 02:29:05;;;;;;;;;;;14.40;99.90;;;;;;5001540;28;19925;-70
2022/07/27 02:31:34;;;;;;;;;;;14.40;99.90;;;;;;5000165;28;20355;-70
2022/07/27 02:34:00;;;;;;;;;;;14.30;99.90;;;;;;5012025;28;19929;-70
2022/07/27 02:36:28;;;;;;;;;;;14.20;99.90;;;;;;5003759;28;19936;-71
2022/07/27 02:38:55;;;;;;;;;;;14.20;99.90;;;;;;5009264;28;20453;-70
2022/07/27 02:41:21;;;;;;;;;;;14.10;99.90;;;;;;5005047;28;19933;-70
2022/07/27 02:43:48;;;;;;;;;;;14.10;99.90;;;;;;5005706;28;20016;-70
2022/07/27 02:46:15;;;;;;;;;;;14.00;99.90;;;;;;5009170;28;19932;-70
2022/07/27 02:48:43;;;;;;;;;;;13.90;99.90;;;;;;4998660;28;19925;-70
2022/07/27 02:51:10;;;;;;;;;;;13.90;99.90;;;;;;4999133;28;19988;-70
2022/07/27 02:53:37;;;;;;;;;;;13.80;99.90;;;;;;5006713;28;19979;-70
2022/07/27 02:56:04;;;;;;;;;;;13.80;99.90;;;;;;5013370;28;19925;-70
2022/07/27 02:58:31;;;;;;;;;;;13.70;99.90;;;;;;5007638;28;19929;-70
2022/07/27 03:00:58;;;;;;;;;;;;;;;;;;5005735;28;19984;-70
2022/07/27 03:03:25;;;;;;;;;;;13.60;99.90;;;;;;5009809;28;19926;-70
2022/07/27 03:05:53;;;;;;;;;;;13.60;99.90;;;;;;4999086;28;19936;-70
2022/07/27 03:08:20;;;;;;;;;;;13.50;99.90;;;;;;5009196;28;19929;-70
2022/07/27 03:10:47;;;;;;;;;;;13.50;99.90;;;;;;5004850;28;19933;-70
2022/07/27 03:13:14;;;;;;;;;;;13.40;99.90;;;;;;5004370;28;20332;-70
2022/07/27 03:15:40;;;;;;;;;;;13.40;99.90;;;;;;5027592;28;19940;-70
2022/07/27 03:18:07;;;;;;;;;;;13.30;99.90;;;;;;5004882;28;19925;-70
2022/07/27 03:20:34;;;;;;;;;;;13.30;99.90;;;;;;5004750;28;19972;-70
2022/07/27 03:23:02;;;;;;;;;;;13.30;99.90;;;;;;5010538;28;20359;-70
2022/07/27 03:25:29;;;;;;;;;;;13.30;99.90;;;;;;5010539;28;19975;-70
2022/07/27 03:27:56;;;;;;;;;;;13.20;99.90;;;;;;5013049;28;19929;-70
2022/07/27 03:30:23;;;;;;;;;;;13.20;99.90;;;;;;5010529;28;19929;-71
2022/07/27 03:32:50;;;;;;;;;;;13.10;99.90;;;;;;5006282;28;19925;-71
2022/07/27 03:35:16;;;;;;;;;;;13.10;99.90;;;;;;5010801;28;19926;-70
2022/07/27 03:37:43;;;;;;;;;;;13.00;99.90;;;;;;4999418;28;20457;-70
2022/07/27 03:40:12;;;;;;;;;;;13.00;99.90;;;;;;5015610;28;19987;-70
2022/07/27 03:42:38;;;;;;;;;;;13.00;99.90;;;;;;5008236;28;19925;-71
2022/07/27 03:45:06;;;;;;;;;;;12.90;99.90;;;;;;5010132;28;19929;-70
2022/07/27 03:47:32;;;;;;;;;;;12.90;99.90;;;;;;5005960;28;19933;-69
2022/07/27 03:49:59;;;;;;;;;;;12.90;99.90;;;;;;5006594;28;20373;-70
2022/07/27 03:52:26;;;;;;;;;;;12.90;99.90;;;;;;5009194;28;19937;-69
2022/07/27 03:54:53;;;;;;;;;;;12.90;99.90;;;;;;5009524;28;19929;-71
2022/07/27 03:57:21;;;;;;;;;;;12.90;99.90;;;;;;5003318;28;19926;-70
2022/07/27 03:59:48;;;;;;;;;;;12.80;99.90;;;;;;5009304;28;19929;-70
2022/07/27 04:02:14;;;;;;;;;;;12.80;99.90;;;;;;5004638;28;19937;-71
2022/07/27 04:04:41;;;;;;;;;;;12.80;99.90;;;;;;5008380;28;19926;-71
2022/07/27 04:07:09;;;;;;;;;;;12.80;99.90;;;;;;5012046;28;19925;-71
2022/07/27 04:09:36;;;;;;;;;;;12.70;99.90;;;;;;5009295;28;20023;-73
2022/07/27 04:12:03;;;;;;;;;;;12.70;99.90;;;;;;5005459;28;20027;-70
2022/07/27 04:14:31;;;;;;;;;;;12.70;99.90;;;;;;5004005;28;19934;-70
2022/07/27 04:16:58;;;;;;;;;;;12.70;99.90;;;;;;5017074;28;19929;-70
2022/07/27 04:19:25;;;;;;;;;;;12.70;99.90;;;;;;5005735;28;19926;-70
2022/07/27 04:21:51;;;;;;;;;;;12.70;99.90;;;;;;5001060;28;19926;-71
2022/07/27 04:24:18;;;;;;;;;;;12.70;99.90;;;;;;5009570;28;19926;-70
2022/07/27 04:26:45;;;;;;;;;;;12.70;99.90;;;;;;5010650;28;19925;-70
2022/07/27 04:29:12;;;;;;;;;;;12.80;99.90;;;;;;5001488;28;19925;-70
2022/07/27 04:31:40;;;;;;;;;;;12.80;99.90;;;;;;5012355;28;19925;-70
2022/07/27 04:34:07;;;;;;;;;;;12.80;99.90;;;;;;5013828;28;19964;-70
2022/07/27 04:36:34;;;;;;;;;;;12.80;99.90;;;;;;5009464;28;19940;-70
2022/07/27 04:39:04;;;;;;;;;;;12.80;99.90;;;;;;5007393;28;20397;-70
2022/07/27 04:41:31;;;;;;;;;;;12.90;99.90;;;;;;5009983;28;19948;-70
2022/07/27 04:43:58;;;;;;;;;;;12.90;99.90;;;;;;5006844;28;19929;-70
2022/07/27 04:46:29;;;;;;;;;;;12.90;99.90;;;;;;5009716;28;19925;-70
2022/07/27 04:48:57;;;;;;;;;;;13.00;99.90;;;;;;4997374;28;20460;-71
2022/07/27 04:51:24;;;;;;;;;;;13.00;99.90;;;;;;5002532;28;20301;-71
2022/07/27 04:53:50;;;;;;;;;;;13.00;99.90;;;;;;4999414;28;20020;-72
2022/07/27 04:56:17;;;;;;;;;;;12.90;99.90;;;;;;4997229;28;19925;-72
2022/07/27 04:58:44;;;;;;;;;;;12.90;99.90;;;;;;4998247;28;19937;-71
2022/07/27 05:01:11;;;;;;;;;;;13.00;99.90;;;;;;4997951;28;19933;-73
2022/07/27 05:03:42;;;;;;;;;;;13.00;99.90;;;;;;5019503;28;19925;-73
2022/07/27 05:06:11;;;;;;;;;;;13.00;99.90;;;;;;5003950;28;19933;-71
2022/07/27 05:08:38;;;;;;;;;;;13.10;99.90;;;;;;5011849;28;19925;-72
2022/07/27 05:11:04;;;;;;;;;;;13.10;99.90;;;;;;5002022;28;19933;-72
2022/07/27 05:13:31;;;;;;;;;;;13.10;99.90;;;;;;5001862;28;19932;-72
2022/07/27 05:15:58;;;;;;;;;;;13.20;99.90;;;;;;5005128;28;19929;-72
2022/07/27 05:18:25;;;;;;;;;;;13.20;99.90;;;;;;4995947;28;19932;-72
2022/07/27 05:20:52;;;;;;;;;;;13.30;99.90;;;;;;5011884;28;19969;-72
2022/07/27 05:23:20;;;;;;;;;;;13.30;99.90;;;;;;4996882;28;19980;-72
2022/07/27 05:25:47;;;;;;;;;;;13.40;99.90;;;;;;5004229;28;19937;-72
2022/07/27 05:28:14;;;;;;;;;;;13.40;99.90;;;;;;5000912;28;19929;-72
2022/07/27 05:30:41;;;;;;;;;;;13.50;99.90;;;;;;5001281;28;19929;-71
2022/07/27 05:33:08;;;;;;;;;;;13.60;99.90;;;;;;5009465;28;19925;-72
2022/07/27 05:35:35;;;;;;;;;;;13.60;99.90;;;;;;5006675;28;19933;-74
2022/07/27 05:38:02;;;;;;;;;;;13.60;99.90;;;;;;5006301;28;19976;-74
2022/07/27 05:40:30;;;;;;;;;;;13.70;99.90;;;;;;5004868;28;19925;-75
2022/07/27 05:42:57;;;;;;;;;;;13.70;99.90;;;;;;5002657;28;20286;-71
2022/07/27 05:45:24;;;;;;;;;;;13.80;99.90;;;;;;5004044;28;20483;-72
2022/07/27 05:47:53;;;;;;;;;;;13.80;99.90;;;;;;4994369;28;20465;-72
2022/07/27 05:50:19;;;;;;;;;;;13.90;99.90;;;;;;5018398;28;19941;-71
2022/07/27 05:52:46;;;;;;;;;;;13.90;99.90;;;;;;4997159;28;19934;-71
2022/07/27 05:55:13;;;;;;;;;;;14.00;99.90;;;;;;4993906;28;19926;-71
2022/07/27 05:57:42;;;;;;;;;;;14.10;99.90;;;;;;4994636;28;20021;-71
2022/07/27 06:00:10;;;;;;;;;;;14.20;99.90;;;;;;5003041;28;19929;-71
2022/07/27 06:02:40;;;;;;;;;;;14.20;99.90;;;;;;5004432;28;19929;-71
2022/07/27 06:05:07;;;;;;;;;;;14.30;99.90;;;;;;5007064;28;19929;-72
2022/07/27 06:10:18;;;;;;;;;;;14.50;99.90;;;;;;5006272;28;20372;-71
2022/07/27 06:12:47;;;;;;;;;;;14.50;99.90;;;;;;4999871;28;19929;-71
2022/07/27 06:15:14;;;;;;;;;;;14.50;99.90;;;;;;5008801;28;19932;-69
2022/07/27 06:17:41;;;;;;;;;;;14.50;99.90;;;;;;5009014;28;19926;-69
2022/07/27 06:20:09;;;;;;;;;;;14.60;99.90;;;;;;5009387;28;19932;-70
2022/07/27 06:22:44;;;;;;;;;;;14.70;99.90;;;;;;4998857;28;19925;-70
2022/07/27 06:25:11;;;;;;;;;;;14.80;99.90;;;;;;4999719;28;20343;-70
2022/07/27 06:27:37;;;;;;;;;;;14.80;99.90;;;;;;5002421;28;19930;-69
2022/07/27 06:30:06;;;;;;;;;;;14.90;99.90;;;;;;5005092;28;20400;-71
2022/07/27 06:32:33;;;;;;;;;;;15.00;99.90;;;;;;5011155;28;19925;-72
2022/07/27 06:35:00;;;;;;;;;;;15.00;99.90;;;;;;5005983;28;19926;-71
2022/07/27 06:37:28;;;;;;;;;;;15.00;99.90;;;;;;5013463;28;20454;-71
2022/07/27 06:39:55;;;;;;;;;;;15.10;99.90;;;;;;5007056;28;19930;-71
2022/07/27 06:42:22;;;;;;;;;;;15.20;99.90;;;;;;4998578;28;19926;-71
2022/07/27 06:44:49;;;;;;;;;;;15.30;99.90;;;;;;5001993;28;20370;-72
2022/07/27 06:47:17;;;;;;;;;;;15.40;99.90;;;;;;5007361;28;19925;-68
2022/07/27 06:49:44;;;;;;;;;;;15.40;99.90;;;;;;4993647;28;19929;-70
2022/07/27 06:52:11;;;;;;;;;;;15.40;99.90;;;;;;5007555;28;19972;-74
2022/07/27 06:54:37;;;;;;;;;;;15.50;99.90;;;;;;5002042;28;19930;-70
2022/07/27 06:57:04;;;;;;;;;;;15.60;99.90;;;;;;4998296;28;20198;-72
2022/07/27 06:59:32;;;;;;;;;;;15.70;99.90;;;;;;5000780;28;19926;-72
2022/07/27 07:01:59;;;;;;;;;;;15.80;99.90;;;;;;5005162;28;19925;-72
2022/07/27 07:04:27;;;;;;;;;;;16.00;99.90;;;;;;5007449;28;19933;-72
2022/07/27 07:06:54;;;;;;;;;;;16.10;99.90;;;;;;4994354;28;19933;-71
2022/07/27 07:09:21;;;;;;;;;;;16.10;99.90;;;;;;5016365;28;19930;-72
2022/07/27 07:11:48;;;;;;;;;;;16.10;99.90;;;;;;5010654;28;20035;-72
2022/07/27 07:14:14;;;;;;;;;;;16.20;99.90;;;;;;5010244;28;19975;-72
2022/07/27 07:16:41;;;;;;;;;;;16.30;99.90;;;;;;5010117;28;19933;-72
2022/07/27 07:19:09;;;;;;;;;;;16.40;99.90;;;;;;5009766;28;19932;-71
2022/07/27 07:21:37;;;;;;;;;;;16.50;99.90;;;;;;5007616;28;19932;-72
2022/07/27 07:24:04;;;;;;;;;;;16.60;99.90;;;;;;5004544;28;19933;-72
2022/07/27 07:26:31;;;;;;;;;;;16.80;99.90;;;;;;5004021;28;19925;-72
2022/07/27 07:28:58;;;;;;;;;;;17.00;99.90;;;;;;5010990;28;19932;-72
2022/07/27 07:31:25;;;;;;;;;;;17.30;99.90;;;;;;5002592;28;20402;-72
2022/07/27 07:33:52;;;;;;;;;;;17.60;99.90;;;;;;5011643;28;19925;-72
2022/07/27 07:36:18;;;;;;;;;;;17.80;99.90;;;;;;5011261;28;19925;-72
2022/07/27 07:38:47;;;;;;;;;;;18.00;99.90;;;;;;5007589;28;19933;-71
2022/07/27 07:41:13;;;;;;;;;;;18.10;99.90;;;;;;5003073;28;19932;-72
2022/07/27 07:43:41;;;;;;;;;;;18.20;99.90;;;;;;5008878;28;20352;-72
2022/07/27 07:46:08;;;;;;;;;;;18.20;99.90;;;;;;5000499;28;19926;-72
2022/07/27 07:48:34;;;;;;;;;;;18.30;99.90;;;;;;5050656;23;20016;-75
2022/07/27 07:51:01;;;;;;;;;;;18.40;99.90;;;;;;5031059;28;19979;-75
2022/07/27 07:53:28;;;;;;;;;;;18.50;99.90;;;;;;5020736;28;20024;-75
2022/07/27 07:55:57;;;;;;;;;;;18.50;99.90;;;;;;5024164;28;19976;-75
2022/07/27 07:58:23;;;;;;;;;;;18.80;99.90;;;;;;5007150;28;19949;-76
2022/07/27 08:00:50;;;;;;;;;;;18.90;99.90;;;;;;5027488;28;19933;-75
2022/07/27 08:03:17;;;;;;;;;;;19.00;99.90;;;;;;5004084;28;19925;-75
2022/07/27 08:05:44;;;;;;;;;;;19.00;99.90;;;;;;5019158;28;19925;-75
2022/07/27 08:08:11;;;;;;;;;;;19.10;99.90;;;;;;5017290;28;19925;-76
2022/07/27 08:10:38;;;;;;;;;;;19.30;99.90;;;;;;5023290;28;19926;-75
2022/07/27 08:13:07;;;;;;;;;;;19.60;99.90;;;;;;5026441;28;19925;-75
2022/07/27 08:15:34;;;;;;;;;;;19.80;99.90;;;;;;5004174;28;19936;-76
2022/07/27 08:18:01;;;;;;;;;;;19.70;99.90;;;;;;5010565;28;20420;-77
2022/07/27 08:20:28;;;;;;;;;;;19.60;99.90;;;;;;5000450;28;19932;-76
2022/07/27 08:22:54;;;;;;;;;;;19.40;99.90;;;;;;5017336;28;19932;-77
2022/07/27 08:25:21;;;;;;;;;;;19.20;99.90;;;;;;5016797;28;19926;-76
2022/07/27 08:27:48;;;;;;;;;;;18.80;99.90;;;;;;5009276;28;19926;-76
2022/07/27 08:30:16;;;;;;;;;;;18.60;99.90;;;;;;5008278;28;19929;-76
2022/07/27 08:32:47;;;;;;;;;;;18.50;99.90;;;;;;5016032;28;20000;-75
2022/07/27 08:35:15;;;;;;;;;;;18.50;99.90;;;;;;5021393;28;20301;-76
2022/07/27 08:37:42;;;;;;;;;;;18.70;99.90;;;;;;5024314;28;20446;-76
2022/07/27 08:40:09;;;;;;;;;;;18.90;99.90;;;;;;5008408;28;19929;-76
2022/07/27 08:42:36;;;;;;;;;;;19.20;99.90;;;;;;5023223;28;19933;-76
2022/07/27 08:45:04;;;;;;;;;;;19.20;99.90;;;;;;5009357;28;19940;-76
2022/07/27 08:47:33;;;;;;;;;;;19.30;99.90;;;;;;5007065;28;20365;-76
2022/07/27 08:50:00;;;;;;;;;;;19.40;99.90;;;;;;5009779;28;19925;-76
2022/07/27 08:52:27;;;;;;;;;;;19.40;99.90;;;;;;5008358;28;19925;-76
2022/07/27 08:54:54;;;;;;;;;;;19.50;99.90;;;;;;5016579;28;19933;-76
2022/07/27 08:57:20;;;;;;;;;;;19.50;99.90;;;;;;5004469;28;19976;-76
2022/07/27 08:59:47;;;;;;;;;;;19.40;99.90;;;;;;4999749;28;19977;-76
2022/07/27 09:02:15;;;;;;;;;;;19.20;99.90;;;;;;5004831;28;19926;-76
2022/07/27 09:04:43;;;;;;;;;;;19.20;99.90;;;;;;5008978;28;19948;-76
2022/07/27 09:07:09;;;;;;;;;;;19.40;99.90;;;;;;5025036;28;19930;-76
2022/07/27 09:09:43;;;;;;;;;;;19.50;99.90;;;;;;5005467;28;19933;-76
2022/07/27 09:12:10;;;;;;;;;;;19.70;99.90;;;;;;5001015;28;20400;-76
2022/07/27 09:14:39;;;;;;;;;;;19.70;99.90;;;;;;5020597;28;20456;-76
2022/07/27 09:17:22;;;;;;;;;;;19.80;99.90;;;;;;5001706;28;20385;-76
2022/07/27 09:19:58;;;;;;;;;;;20.00;99.90;;;;;;5023137;28;20342;-76
2022/07/27 09:22:48;;;;;;;;;;;19.80;99.90;;;;;;5021006;28;19933;-76
2022/07/27 09:25:16;;;;;;;;;;;19.50;99.90;;;;;;5015854;28;19926;-76
2022/07/27 09:27:44;;;;;;;;;;;19.50;99.90;;;;;;5014239;28;19932;-76
2022/07/27 09:30:14;;;;;;;;;;;19.60;99.90;;;;;;5016078;28;21438;-76
2022/07/27 09:32:51;;;;;;;;;;;19.60;99.90;;;;;;5015464;28;19926;-76
2022/07/27 09:35:21;;;;;;;;;;;19.80;99.90;;;;;;5015517;28;19925;-76
2022/07/27 09:37:47;;;;;;;;;;;20.00;99.90;;;;;;5020840;28;19934;-76
2022/07/27 09:40:15;;;;;;;;;;;20.00;99.90;;;;;;5007419;28;19929;-76
2022/07/27 09:42:42;;;;;;;;;;;19.90;99.90;;;;;;5020250;28;19926;-76
2022/07/27 09:45:29;;;;;;;;;;;20.00;99.90;;;;;;5019017;28;19987;-77
2022/07/27 09:48:09;;;;;;;;;;;20.10;99.90;;;;;;4994619;28;19961;-76
2022/07/27 09:50:40;;;;;;;;;;;20.40;99.90;;;;;;5011125;28;19929;-76
2022/07/27 09:53:14;;;;;;;;;;;20.60;99.90;;;;;;5008195;28;19984;-76
2022/07/27 09:55:41;;;;;;;;;;;20.80;99.90;;;;;;5007984;28;19925;-76
2022/07/27 09:58:08;;;;;;;;;;;20.90;99.90;;;;;;4988516;28;19925;-76
2022/07/27 10:00:35;;;;;;;;;;;20.80;99.90;;;;;;5016410;28;19925;-76
2022/07/27 10:03:02;;;;;;;;;;;20.50;99.90;;;;;;5017008;28;19956;-77
2022/07/27 10:05:29;;;;;;;;;;;20.20;99.90;;;;;;5012688;28;20012;-76
2022/07/27 10:07:57;;;;;;;;;;;19.80;99.90;;;;;;5017266;28;19980;-77
2022/07/27 10:10:24;;;;;;;;;;;19.50;99.90;;;;;;5008359;28;20471;-78
2022/07/27 10:12:51;;;;;;;;;;;19.60;99.90;;;;;;5019386;28;19932;-77
2022/07/27 10:15:18;;;;;;;;;;;19.50;99.90;;;;;;5004397;28;19926;-78
2022/07/27 10:17:45;;;;;;;;;;;19.50;99.90;;;;;;5013727;28;19926;-79
2022/07/27 10:20:15;;;;;;;;;;;19.70;99.90;;;;;;4997200;28;20028;-78
2022/07/27 10:22:49;;;;;;;;;;;20.00;99.90;;;;;;5010979;28;19926;-78
2022/07/27 10:25:17;;;;;;;;;;;19.90;99.90;;;;;;5017745;28;19925;-78
2022/07/27 10:27:46;;;;;;;;;;;19.90;99.90;;;;;;5003927;28;19929;-78
2022/07/27 10:30:13;;;;;;;;;;;20.00;99.90;;;;;;5020321;28;19929;-77
2022/07/27 10:32:43;;;;;;;;;;;20.20;99.90;;;;;;5024106;28;19925;-78
2022/07/27 10:35:32;;;;;;;;;;;20.50;99.90;;;;;;5021055;28;20291;-78
2022/07/27 10:38:09;;;;;;;;;;;20.70;99.90;;;;;;5001217;28;20426;-78
2022/07/27 10:40:38;;;;;;;;;;;21.10;99.90;;;;;;5008470;28;19929;-78
2022/07/27 10:43:10;;;;;;;;;;;21.50;99.90;;;;;;5018064;28;19929;-78
2022/07/27 10:45:41;;;;;;;;;;;21.80;99.90;;;;;;5007160;28;19987;-78
2022/07/27 10:48:07;;;;;;;;;;;22.10;99.90;;;;;;5016160;28;20016;-78
2022/07/27 10:50:34;;;;;;;;;;;22.40;99.90;;;;;;5027038;28;20293;-78
2022/07/27 10:53:02;;;;;;;;;;;22.50;99.90;;;;;;5010152;28;19937;-78
2022/07/27 10:55:44;;;;;;;;;;;22.70;99.90;;;;;;5028431;28;19933;-78
2022/07/27 10:58:30;;;;;;;;;;;22.70;99.90;;;;;;5019508;28;20477;-78
2022/07/27 11:01:00;;;;;;;;;;;23.00;99.90;;;;;;5000720;28;19933;-78
2022/07/27 11:03:31;;;;;;;;;;;23.00;99.90;;;;;;5021180;28;19932;-78
2022/07/27 11:06:00;;;;;;;;;;;23.10;99.90;;;;;;5014125;28;19926;-78
2022/07/27 11:08:28;;;;;;;;;;;23.20;99.90;;;;;;5008541;28;19933;-78
2022/07/27 11:10:56;;;;;;;;;;;22.90;99.90;;;;;;4987149;28;20401;-78
2022/07/27 11:13:24;;;;;;;;;;;22.60;99.90;;;;;;4998379;28;19926;-78
2022/07/27 11:15:52;;;;;;;;;;;22.20;99.90;;;;;;5011519;28;19961;-78
2022/07/27 11:18:18;;;;;;;;;;;22.10;99.90;;;;;;5005747;28;19979;-78
2022/07/27 11:20:45;;;;;;;;;;;22.20;99.90;;;;;;5006686;28;19925;-78
2022/07/27 11:23:18;;;;;;;;;;;22.60;99.90;;;;;;5026517;28;19933;-78
2022/07/27 11:25:58;;;;;;;;;;;23.00;99.90;;;;;;5006390;28;19925;-77
2022/07/27 11:28:28;;;;;;;;;;;23.20;99.90;;;;;;5022615;28;20401;-78
2022/07/27 11:30:56;;;;;;;;;;;23.30;99.90;;;;;;4992038;28;19964;-78
2022/07/27 11:33:23;;;;;;;;;;;;;;;;;;5014371;28;19971;-77
2022/07/27 11:35:50;;;;;;;;;;;;;;;;;;5011547;28;19929;-77
2022/07/27 11:38:16;;;;;;;;;;;24.10;99.90;;;;;;5010663;28;19926;-76
2022/07/27 11:40:44;;;;;;;;;;;24.30;99.90;;;;;;4993231;28;19937;-77
2022/07/27 11:43:12;;;;;;;;;;;24.80;99.90;;;;;;4995638;28;20302;-77
2022/07/27 11:45:40;;;;;;;;;;;25.70;99.90;;;;;;5010010;28;19925;-79
2022/07/27 11:48:08;;;;;;;;;;;26.90;99.90;;;;;;4998402;28;19932;-79
2022/07/27 11:50:35;;;;;;;;;;;27.90;99.90;;;;;;5015383;28;19926;-76
2022/07/27 11:53:02;;;;;;;;;;;28.20;99.90;;;;;;5000996;28;19932;-75
2022/07/27 11:55:29;;;;;;;;;;;29.10;99.90;;;;;;5012863;28;19925;-76
2022/07/27 11:57:56;;;;;;;;;;;;;;;;;;5009508;28;20407;-76
2022/07/27 12:00:25;;;;;;;;;;;31.30;99.90;;;;;;5012878;28;19925;-77
2022/07/27 12:02:52;;;;;;;;;;;32.60;99.90;;;;;;4993277;28;19929;-77
2022/07/27 12:05:18;;;;;;;;;;;31.50;98.20;;;;;;5000406;28;20278;-78
2022/07/27 12:07:46;;;;;;;;;;;30.10;98.30;;;;;;5009028;28;19936;-76
2022/07/27 12:10:13;;;;;;;;;;;27.80;98.60;;;;;;5022780;28;19926;-76
2022/07/27 12:12:40;;;;;;;;;;;26.40;99.30;;;;;;5014962;28;19925;-76
2022/07/27 12:15:14;;;;;;;;;;;25.80;99.90;;;;;;5015271;28;20470;-76
2022/07/27 12:17:42;;;;;;;;;;;25.90;99.90;;;;;;5009235;28;19955;-76
2022/07/27 12:20:10;;;;;;;;;;;25.50;99.90;;;;;;5001106;28;20027;-76
2022/07/27 12:22:38;;;;;;;;;;;25.10;99.90;;;;;;5023095;28;19932;-76
2022/07/27 12:25:07;;;;;;;;;;;25.10;99.90;;;;;;5010500;28;19930;-76
2022/07/27 12:27:34;;;;;;;;;;;24.30;99.90;;;;;;4998102;28;19925;-76
2022/07/27 12:30:05;;;;;;;;;;;24.00;99.90;;;;;;5006570;28;19926;-76
2022/07/27 12:32:33;;;;;;;;;;;23.90;99.90;;;;;;5007691;28;20407;-76
2022/07/27 12:35:15;;;;;;;;;;;23.50;99.90;;;;;;5015042;28;19980;-76
2022/07/27 12:37:42;;;;;;;;;;;23.30;99.90;;;;;;5009551;28;19926;-76
2022/07/27 12:40:14;;;;;;;;;;;22.90;99.90;;;;;;5020260;28;19926;-76
2022/07/27 12:42:41;;;;;;;;;;;22.60;99.90;;;;;;5015506;28;20440;-76
2022/07/27 12:45:12;;;;;;;;;;;22.60;99.90;;;;;;5012694;28;19953;-76
2022/07/27 12:47:41;;;;;;;;;;;22.60;99.90;;;;;;4999853;28;20289;-76
2022/07/27 12:50:10;;;;;;;;;;;22.90;99.90;;;;;;5018781;28;19929;-76
2022/07/27 12:52:38;;;;;;;;;;;23.00;99.90;;;;;;5014246;28;19936;-76
2022/07/27 12:55:06;;;;;;;;;;;22.90;99.90;;;;;;5013062;28;19929;-76
2022/07/27 12:57:33;;;;;;;;;;;23.10;99.90;;;;;;5007950;28;19932;-76
2022/07/27 13:00:00;;;;;;;;;;;23.20;99.90;;;;;;5021472;28;20305;-76
2022/07/27 13:02:26;;;;;;;;;;;23.40;99.90;;;;;;5014002;28;19937;-76
2022/07/27 13:04:53;;;;;;;;;;;23.50;99.90;;;;;;5020622;28;20350;-76
2022/07/27 13:07:21;;;;;;;;;;;23.50;99.90;;;;;;5019654;28;19964;-76
2022/07/27 13:09:48;;;;;;;;;;;23.30;99.90;;;;;;5020791;28;19989;-76
2022/07/27 13:12:15;;;;;;;;;;;23.50;99.90;;;;;;5010294;28;19925;-76
2022/07/27 13:14:42;;;;;;;;;;;24.10;99.90;;;;;;5022080;28;19926;-76
2022/07/27 13:17:08;;;;;;;;;;;24.60;99.90;;;;;;5016036;28;20005;-76
2022/07/27 13:19:35;;;;;;;;;;;25.30;99.90;;;;;;5024725;28;19925;-76
2022/07/27 13:22:03;;;;;;;;;;;25.40;99.90;;;;;;5017141;28;19969;-76
2022/07/27 13:24:31;;;;;;;;;;;25.30;99.90;;;;;;5023784;28;20459;-76
2022/07/27 13:26:59;;;;;;;;;;;25.00;99.90;;;;;;5016006;28;19926;-76
2022/07/27 13:29:25;;;;;;;;;;;24.80;99.90;;;;;;4996293;28;20352;-76
2022/07/27 13:31:52;;;;;;;;;;;24.60;99.90;;;;;;5006175;28;19925;-76
2022/07/27 13:34:19;;;;;;;;;;;24.20;99.90;;;;;;4999348;28;19929;-76
2022/07/27 13:36:46;;;;;;;;;;;24.20;99.90;;;;;;5014650;28;19929;-76
2022/07/27 13:39:13;;;;;;;;;;;24.80;99.90;;;;;;5015308;28;19929;-76
2022/07/27 13:41:42;;;;;;;;;;;26.40;99.90;;;;;;5016703;28;19925;-76
2022/07/27 13:44:09;;;;;;;;;;;28.60;99.90;;;;;;5007457;28;20392;-76
2022/07/27 13:46:37;;;;;;;;;;;30.60;98.90;;;;;;5021175;28;19998;-76
2022/07/27 13:49:04;;;;;;;;;;;30.40;98.30;;;;;;5015395;28;19930;-76
2022/07/27 13:51:30;;;;;;;;;;;30.60;98.50;;;;;;5006827;28;19941;-77
2022/07/27 13:53:57;;;;;;;;;;;30.90;97.20;;;;;;5003333;28;19936;-76
2022/07/27 13:56:25;;;;;;;;;;;29.70;97.30;;;;;;5014381;28;19933;-76
2022/07/27 13:58:53;;;;;;;;;;;28.50;97.50;;;;;;5014687;28;20014;-77
2022/07/27 14:01:20;;;;;;;;;;;27.60;98.20;;;;;;5009921;28;19926;-76
2022/07/27 14:03:47;;;;;;;;;;;26.60;99.10;;;;;;4994494;28;19933;-76
2022/07/27 14:06:15;;;;;;;;;;;26.20;99.40;;;;;;5021894;28;20020;-76
2022/07/27 14:08:41;;;;;;;;;;;25.80;99.30;;;;;;4998287;28;20016;-76
2022/07/27 14:11:08;;;;;;;;;;;25.40;99.70;;;;;;5021657;28;19932;-76
2022/07/27 14:13:35;;;;;;;;;;;25.40;99.90;;;;;;5007848;28;20020;-76
2022/07/27 14:16:05;;;;;;;;;;;25.60;99.90;;;;;;5015833;28;20386;-76
2022/07/27 14:18:32;;;;;;;;;;;25.80;99.40;;;;;;5008001;28;20009;-76
2022/07/27 14:21:00;;;;;;;;;;;25.90;99.40;;;;;;5009504;28;19932;-76
2022/07/27 14:23:27;;;;;;;;;;;26.30;99.30;;;;;;5011384;28;19925;-76
2022/07/27 14:25:54;;;;;;;;;;;26.70;99.20;;;;;;5009639;28;19925;-76
2022/07/27 14:28:21;;;;;;;;;;;27.60;98.00;;;;;;4999192;28;19932;-78